Time;durP1;ratioP1;P1;durP2;ratioP2;P2;SDS_P1;SDS_P2;PMS_P1;PMS_P2;Temp;Humidity;BMP_temperature;BMP_pressure;BME280_temperature;BME280_humidity;BME280_pressure;Samples;Min_cycle;Max_cycle;Signal;HPM_P1;HPM_P2
2023/06/08 00:00:05;;;;;;;29.13;26.67;;;16.80;99.90;;;;;;5056718;28;20289;-75
2023/06/08 00:02:37;;;;;;;31.05;28.25;;;16.80;99.90;;;;;;5000483;28;20057;-74
2023/06/08 00:05:05;;;;;;;30.30;27.60;;;16.90;99.90;;;;;;5056896;28;20054;-72
2023/06/08 00:07:34;;;;;;;31.88;28.63;;;16.90;99.90;;;;;;5058247;27;20042;-74
2023/06/08 00:10:01;;;;;;;29.48;26.90;;;16.90;99.90;;;;;;4993050;28;20052;-74
2023/06/08 00:12:28;;;;;;;31.20;28.23;;;16.90;99.90;;;;;;5060479;27;20045;-74
2023/06/08 00:14:55;;;;;;;30.88;27.90;;;16.90;99.90;;;;;;5059985;27;20509;-75
2023/06/08 00:17:23;;;;;;;28.17;25.92;;;16.90;99.90;;;;;;5008600;27;20045;-75
2023/06/08 00:19:52;;;;;;;28.73;26.38;;;16.80;99.90;;;;;;5000753;27;20287;-76
2023/06/08 00:22:21;;;;;;;27.50;25.20;;;16.80;99.90;;;;;;5067264;28;20207;-73
2023/06/08 00:24:48;;;;;;;26.60;24.10;;;16.70;99.90;;;;;;5005502;27;20053;-73
2023/06/08 00:27:14;;;;;;;22.58;20.60;;;16.50;99.90;;;;;;5065458;27;20050;-74
2023/06/08 00:29:41;;;;;;;21.25;19.35;;;16.10;99.90;;;;;;5084338;27;20045;-74
2023/06/08 00:32:08;;;;;;;21.58;19.65;;;15.80;99.90;;;;;;5061663;27;20309;-73
2023/06/08 00:34:35;;;;;;;21.20;19.45;;;15.40;99.90;;;;;;5000162;28;20581;-73
2023/06/08 00:37:02;;;;;;;20.88;19.30;;;15.30;99.90;;;;;;5071801;27;20041;-71
2023/06/08 00:39:31;;;;;;;20.67;19.10;;;15.20;99.90;;;;;;5060467;27;20517;-70
2023/06/08 00:41:57;;;;;;;19.95;18.55;;;15.10;99.90;;;;;;4993984;27;20102;-71
2023/06/08 00:44:24;;;;;;;19.25;17.75;;;15.20;99.90;;;;;;5068448;27;20046;-71
2023/06/08 00:46:55;;;;;;;17.73;16.33;;;15.20;99.90;;;;;;5061642;27;20639;-71
2023/06/08 00:49:31;;;;;;;18.83;17.33;;;15.00;99.90;;;;;;4996513;27;20094;-71
2023/06/08 00:52:00;;;;;;;19.77;18.30;;;15.00;99.90;;;;;;4989880;27;20041;-70
2023/06/08 00:54:30;;;;;;;21.77;20.02;;;15.10;99.90;;;;;;4994971;27;20116;-70
2023/06/08 00:57:00;;;;;;;22.88;20.92;;;15.20;99.90;;;;;;4996516;27;20417;-72
2023/06/08 00:59:30;;;;;;;23.95;21.70;;;15.30;99.90;;;;;;5049321;28;20389;-70
2023/06/08 01:01:59;;;;;;;24.17;22.15;;;15.30;99.90;;;;;;4994252;27;20046;-72
2023/06/08 01:04:28;;;;;;;25.02;23.13;;;15.40;99.90;;;;;;5064956;27;20700;-71
2023/06/08 01:07:25;;;;;;;26.25;24.02;;;15.50;99.90;;;;;;5068427;27;20471;-71
2023/06/08 01:10:01;;;;;;;25.38;23.15;;;15.50;99.90;;;;;;5062325;27;20041;-72
2023/06/08 01:12:46;;;;;;;23.33;21.52;;;15.50;99.90;;;;;;5069223;27;20046;-72
2023/06/08 01:15:23;;;;;;;22.20;20.35;;;15.40;99.90;;;;;;5067635;27;20052;-71
2023/06/08 01:17:53;;;;;;;20.15;18.55;;;15.30;99.90;;;;;;5060143;27;20042;-70
2023/06/08 01:20:48;;;;;;;18.58;17.05;;;15.20;99.90;;;;;;5057477;27;20493;-70
2023/06/08 01:23:25;;;;;;;;;;;14.90;99.90;;;;;;5054409;28;20100;-70
2023/06/08 01:25:56;;;;;;;19.35;17.75;;;15.00;99.90;;;;;;5035556;27;19932;-71
2023/06/08 01:28:24;;;;;;;20.25;18.45;;;15.00;99.90;;;;;;5058535;27;20184;-69
2023/06/08 01:30:52;;;;;;;20.73;19.00;;;15.00;99.90;;;;;;4997704;27;20046;-68
2023/06/08 01:33:21;;;;;;;19.92;17.98;;;15.00;99.90;;;;;;5063269;27;20053;-70
2023/06/08 01:36:17;;;;;;;21.45;19.63;;;15.00;99.90;;;;;;5069706;27;21491;-70
2023/06/08 01:38:56;;;;;;;21.25;19.55;;;15.00;99.90;;;;;;4994437;27;20053;-70
2023/06/08 01:41:32;;;;;;;23.60;21.70;;;15.00;99.90;;;;;;4997710;27;20284;-71
2023/06/08 01:44:00;;;;;;;23.60;21.70;;;15.10;99.90;;;;;;4985181;27;20098;-69
2023/06/08 01:46:30;;;;;;;23.58;21.48;;;15.00;99.90;;;;;;5060227;27;20068;-71
2023/06/08 01:49:01;;;;;;;23.65;21.75;;;14.90;99.90;;;;;;5064069;27;20073;-72
2023/06/08 01:51:30;;;;;;;23.70;21.67;;;15.00;99.90;;;;;;5058526;27;20080;-70
2023/06/08 01:54:05;;;;;;;21.95;20.13;;;15.00;99.90;;;;;;5054499;27;20358;-70
2023/06/08 01:56:32;;;;;;;;;;;15.10;99.90;;;;;;5008009;27;20073;-69
2023/06/08 01:58:59;;;;;;;21.88;20.02;;;15.10;99.90;;;;;;5054437;27;20013;-69
2023/06/08 02:01:26;;;;;;;21.95;20.08;;;15.10;99.90;;;;;;5057025;27;20034;-69
2023/06/08 02:03:53;;;;;;;21.40;19.70;;;15.00;99.90;;;;;;5073357;27;20071;-69
2023/06/08 02:06:20;;;;;;;21.58;19.77;;;15.00;99.90;;;;;;4991717;28;20049;-72
2023/06/08 02:08:47;;;;;;;23.13;21.05;;;14.90;99.90;;;;;;4993297;27;20050;-70
2023/06/08 02:11:14;;;;;;;24.38;22.30;;;14.80;99.90;;;;;;5076855;27;20061;-71
2023/06/08 02:13:42;;;;;;;24.05;22.00;;;14.80;99.90;;;;;;5066563;27;20116;-70
2023/06/08 02:16:11;;;;;;;24.40;22.27;;;14.80;99.90;;;;;;4986121;27;20044;-69
2023/06/08 02:18:41;;;;;;;25.88;23.58;;;14.80;99.90;;;;;;4991860;28;20059;-70
2023/06/08 02:21:09;;;;;;;26.25;23.95;;;14.90;99.90;;;;;;5061683;27;20052;-70
2023/06/08 02:23:35;;;;;;;25.85;23.77;;;14.90;99.90;;;;;;5005930;27;20274;-71
2023/06/08 02:26:04;;;;;;;26.13;23.63;;;14.80;99.90;;;;;;5060291;27;20424;-71
2023/06/08 02:28:31;;;;;;;28.67;26.02;;;14.80;99.90;;;;;;5056839;27;20053;-70
2023/06/08 02:30:58;;;;;;;29.35;26.83;;;14.90;99.90;;;;;;5055605;27;20106;-71
2023/06/08 02:33:25;;;;;;;29.85;27.25;;;14.90;99.90;;;;;;5063169;27;20049;-71
2023/06/08 02:35:53;;;;;;;32.15;28.98;;;14.80;99.90;;;;;;4996709;27;20073;-71
2023/06/08 02:38:20;;;;;;;31.80;28.85;;;14.90;99.90;;;;;;5064404;27;20041;-71
2023/06/08 02:40:47;;;;;;;33.15;30.25;;;14.90;99.90;;;;;;5070491;27;20062;-73
2023/06/08 02:43:15;;;;;;;35.10;31.80;;;14.90;99.90;;;;;;5048538;28;20072;-72
2023/06/08 02:45:44;;;;;;;35.72;32.28;;;14.90;99.90;;;;;;5060841;28;20038;-72
2023/06/08 02:48:12;;;;;;;37.33;33.67;;;14.90;99.90;;;;;;5059532;27;20140;-72
2023/06/08 02:50:38;;;;;;;36.60;33.10;;;14.90;99.90;;;;;;5059149;27;20067;-72
2023/06/08 02:53:06;;;;;;;39.10;35.22;;;15.00;99.90;;;;;;5060498;27;20049;-72
2023/06/08 02:55:34;;;;;;;37.22;33.40;;;15.10;99.90;;;;;;5076535;27;20061;-70
2023/06/08 02:58:05;;;;;;;39.28;35.08;;;15.10;99.90;;;;;;5057711;27;20090;-71
2023/06/08 03:00:34;;;;;;;38.70;34.88;;;15.10;99.90;;;;;;5063856;27;20482;-72
2023/06/08 03:03:23;;;;;;;35.08;31.58;;;15.10;99.90;;;;;;5013852;28;20567;-72
2023/06/08 03:05:59;;;;;;;34.58;30.15;;;15.10;99.90;;;;;;5032283;27;20060;-71
2023/06/08 03:08:31;;;;;;;26.45;23.55;;;15.10;99.90;;;;;;5082569;27;20054;-72
2023/06/08 03:10:58;;;;;;;31.05;23.60;;;15.10;99.90;;;;;;5046861;28;20089;-71
2023/06/08 03:13:24;;;;;;;31.92;22.67;;;15.10;99.90;;;;;;5069430;27;20095;-72
2023/06/08 03:15:52;;;;;;;29.65;24.25;;;15.10;99.90;;;;;;5068786;27;20360;-72
2023/06/08 03:18:19;;;;;;;29.00;25.88;;;15.10;99.90;;;;;;5080624;27;20049;-72
2023/06/08 03:20:47;;;;;;;31.13;25.95;;;15.10;99.90;;;;;;5004896;27;20474;-72
2023/06/08 03:23:17;;;;;;;35.50;25.73;;;15.10;99.90;;;;;;5050107;28;20042;-72
2023/06/08 03:25:51;;;;;;;30.40;27.15;;;15.10;99.90;;;;;;5060736;27;20302;-73
2023/06/08 03:28:18;;;;;;;32.20;27.58;;;15.10;99.90;;;;;;5044322;28;20054;-72
2023/06/08 03:30:47;;;;;;;36.53;30.30;;;15.10;99.90;;;;;;5063853;28;20048;-72
2023/06/08 03:33:16;;;;;;;32.78;29.38;;;15.20;99.90;;;;;;5055444;28;20181;-72
2023/06/08 03:35:49;;;;;;;34.42;30.52;;;15.30;99.90;;;;;;5061379;27;20049;-75
2023/06/08 03:38:20;;;;;;;36.20;30.55;;;15.20;99.90;;;;;;5049101;28;20640;-72
2023/06/08 03:40:47;;;;;;;32.65;29.15;;;15.10;99.90;;;;;;5051680;28;20054;-71
2023/06/08 03:43:15;;;;;;;34.38;28.27;;;15.20;99.90;;;;;;5066080;28;20395;-73
2023/06/08 03:45:43;;;;;;;33.35;28.60;;;15.20;99.90;;;;;;5044505;28;20042;-72
2023/06/08 03:48:09;;;;;;;28.95;23.48;;;15.10;99.90;;;;;;5059354;28;20080;-72
2023/06/08 03:50:37;;;;;;;28.65;25.17;;;15.10;99.90;;;;;;5030983;27;20142;-72
2023/06/08 03:53:05;;;;;;;29.15;24.20;;;15.20;99.90;;;;;;5053272;28;20049;-72
2023/06/08 03:55:32;;;;;;;30.50;23.42;;;15.20;99.90;;;;;;4992592;28;20077;-72
2023/06/08 03:58:00;;;;;;;27.30;22.73;;;15.20;99.90;;;;;;5057241;28;20113;-72
2023/06/08 04:00:29;;;;;;;32.38;23.00;;;15.30;99.90;;;;;;5050361;28;20029;-71
2023/06/08 04:02:57;;;;;;;28.17;22.42;;;15.20;99.90;;;;;;5069964;28;20141;-71
2023/06/08 04:05:24;;;;;;;33.80;23.17;;;15.00;99.90;;;;;;5045965;27;20136;-71
2023/06/08 04:07:51;;;;;;;27.85;22.38;;;14.90;99.90;;;;;;5010558;28;20052;-72
2023/06/08 04:10:18;;;;;;;27.45;21.55;;;14.70;99.90;;;;;;5054759;27;20045;-72
2023/06/08 04:12:46;;;;;;;33.15;20.73;;;14.70;99.90;;;;;;5060790;28;20053;-72
2023/06/08 04:15:13;;;;;;;26.65;21.17;;;14.70;99.90;;;;;;5061660;27;20497;-74
2023/06/08 04:17:43;;;;;;;26.38;21.13;;;14.60;99.90;;;;;;5050512;28;20076;-72
2023/06/08 04:20:12;;;;;;;27.85;22.10;;;14.60;99.90;;;;;;5054005;27;20622;-72
2023/06/08 04:22:41;;;;;;;29.33;21.33;;;14.70;99.90;;;;;;5056018;28;20133;-73
2023/06/08 04:25:08;;;;;;;25.90;19.88;;;14.70;99.90;;;;;;5062819;28;20098;-72
2023/06/08 04:27:35;;;;;;;27.45;21.60;;;14.60;99.90;;;;;;5065359;28;20417;-73
2023/06/08 04:30:03;;;;;;;29.52;21.67;;;14.70;99.90;;;;;;5015928;28;20033;-71
2023/06/08 04:32:32;;;;;;;24.55;22.00;;;14.70;99.90;;;;;;5054190;28;20049;-72
2023/06/08 04:35:00;;;;;;;28.45;22.52;;;14.70;99.90;;;;;;5059501;28;20053;-72
2023/06/08 04:37:27;;;;;;;25.15;21.02;;;14.80;99.90;;;;;;5056976;28;20033;-74
2023/06/08 04:39:56;;;;;;;30.00;20.80;;;14.90;99.90;;;;;;5033551;28;20053;-73
2023/06/08 04:42:27;;;;;;;27.77;21.60;;;15.00;99.90;;;;;;5061174;28;20039;-72
2023/06/08 04:44:54;;;;;;;29.33;21.45;;;14.90;99.90;;;;;;5075670;28;20053;-72
2023/06/08 04:47:21;;;;;;;34.17;21.75;;;14.90;99.90;;;;;;5083641;28;20046;-72
2023/06/08 04:49:51;;;;;;;27.73;21.05;;;15.00;99.90;;;;;;5080603;28;20165;-72
2023/06/08 04:52:19;;;;;;;23.10;18.92;;;15.00;99.90;;;;;;5067280;27;20285;-73
2023/06/08 04:54:46;;;;;;;26.17;21.17;;;15.00;99.90;;;;;;5063153;27;20058;-73
2023/06/08 04:57:15;;;;;;;29.08;21.40;;;15.00;99.90;;;;;;5058646;27;20057;-72
2023/06/08 04:59:42;;;;;;;28.85;19.70;;;15.10;99.90;;;;;;5061889;27;20050;-72
2023/06/08 05:02:08;;;;;;;24.95;18.58;;;15.10;99.90;;;;;;5003626;27;20053;-73
2023/06/08 05:04:36;;;;;;;23.75;19.70;;;15.10;99.90;;;;;;5071733;27;20056;-72
2023/06/08 05:07:03;;;;;;;21.75;19.23;;;15.10;99.90;;;;;;4991420;27;20061;-73
2023/06/08 05:09:30;;;;;;;22.50;20.27;;;15.10;99.90;;;;;;5051267;28;20049;-74
2023/06/08 05:11:57;;;;;;;25.08;20.95;;;15.20;99.90;;;;;;5053912;28;20054;-73
2023/06/08 05:14:23;;;;;;;27.15;19.85;;;15.30;99.90;;;;;;5068046;27;21605;-73
2023/06/08 05:16:50;;;;;;;29.33;20.73;;;15.40;99.90;;;;;;4988389;27;20534;-72
2023/06/08 05:19:17;;;;;;;30.45;20.40;;;15.40;99.90;;;;;;5062297;27;20036;-72
2023/06/08 05:21:44;;;;;;;21.95;19.73;;;15.40;99.90;;;;;;5065205;27;20425;-73
2023/06/08 05:24:11;;;;;;;28.65;21.33;;;15.20;99.90;;;;;;5028352;27;20095;-70
2023/06/08 05:26:39;;;;;;;23.98;19.98;;;15.10;99.90;;;;;;5010667;27;20456;-70
2023/06/08 05:29:06;;;;;;;22.60;20.23;;;14.80;99.90;;;;;;5005137;27;20067;-70
2023/06/08 05:31:33;;;;;;;25.30;22.40;;;14.60;99.90;;;;;;5007167;27;20049;-69
2023/06/08 05:34:00;;;;;;;25.63;21.85;;;14.60;99.90;;;;;;5060645;27;20060;-68
2023/06/08 05:36:27;;;;;;;25.45;20.60;;;14.60;99.90;;;;;;4999433;27;20313;-70
2023/06/08 05:38:53;;;;;;;24.95;21.05;;;14.70;99.90;;;;;;4996853;27;20456;-70
2023/06/08 05:41:21;;;;;;;26.73;21.15;;;14.80;99.90;;;;;;4989251;27;20050;-69
2023/06/08 05:43:48;;;;;;;27.85;22.35;;;14.80;99.90;;;;;;5063886;27;20053;-70
2023/06/08 05:46:15;;;;;;;26.55;20.75;;;15.00;99.90;;;;;;5061541;27;20050;-70
2023/06/08 05:48:41;;;;;;;27.88;20.00;;;15.00;99.90;;;;;;5066065;27;20073;-69
2023/06/08 05:51:08;;;;;;;24.25;20.35;;;14.90;99.90;;;;;;5012374;27;20049;-68
2023/06/08 05:53:37;;;;;;;30.52;20.95;;;14.90;99.90;;;;;;5052734;27;20050;-69
2023/06/08 05:56:04;;;;;;;28.63;20.27;;;15.00;99.90;;;;;;4995462;27;20050;-70
2023/06/08 05:58:31;;;;;;;25.40;20.85;;;14.90;99.90;;;;;;4992520;27;20048;-71
2023/06/08 06:01:15;;;;;;;27.85;20.45;;;15.00;99.90;;;;;;5051946;27;20045;-71
2023/06/08 06:03:42;;;;;;;24.23;19.20;;;14.90;99.90;;;;;;4998432;27;20046;-70
2023/06/08 06:06:10;;;;;;;26.33;21.05;;;15.00;99.90;;;;;;5058218;27;20050;-72
2023/06/08 06:08:37;;;;;;;27.38;21.38;;;15.00;99.90;;;;;;4996461;27;20053;-71
2023/06/08 06:11:07;;;;;;;29.88;22.70;;;15.30;99.90;;;;;;5066469;27;20043;-71
2023/06/08 06:13:34;;;;;;;27.45;19.95;;;15.40;99.90;;;;;;5010277;27;20042;-70
2023/06/08 06:16:01;;;;;;;26.23;20.27;;;15.50;99.90;;;;;;4991023;27;20099;-70
2023/06/08 06:18:27;;;;;;;24.15;20.92;;;15.50;99.90;;;;;;4983406;27;20048;-70
2023/06/08 06:20:55;;;;;;;29.65;19.73;;;15.70;99.90;;;;;;4993489;27;20038;-70
2023/06/08 06:23:22;;;;;;;21.92;18.70;;;15.80;99.90;;;;;;4992943;28;20064;-70
2023/06/08 06:25:52;;;;;;;27.02;19.90;;;15.80;99.90;;;;;;5050197;27;20569;-70
2023/06/08 06:28:19;;;;;;;23.60;19.65;;;15.90;99.90;;;;;;4999086;27;20050;-70
2023/06/08 06:30:46;;;;;;;25.90;20.42;;;16.10;99.90;;;;;;4992662;27;20214;-72
2023/06/08 06:33:12;;;;;;;21.90;17.65;;;16.40;99.90;;;;;;5000926;27;20050;-71
2023/06/08 06:35:39;;;;;;;28.40;20.77;;;16.60;99.90;;;;;;5001362;27;20029;-73
2023/06/08 06:38:06;;;;;;;22.70;18.85;;;16.70;99.90;;;;;;5063778;27;20042;-72
2023/06/08 06:40:33;;;;;;;20.50;18.60;;;16.80;99.90;;;;;;4998553;27;20054;-72
2023/06/08 06:42:59;;;;;;;23.23;20.67;;;17.10;99.90;;;;;;5000795;27;20398;-71
2023/06/08 06:45:32;;;;;;;23.60;18.63;;;17.20;99.90;;;;;;5002526;27;20114;-72
2023/06/08 06:48:02;;;;;;;23.30;20.95;;;17.60;99.90;;;;;;5006535;27;20463;-72
2023/06/08 06:50:31;;;;;;;24.65;22.33;;;17.90;99.90;;;;;;4997639;27;20413;-73
2023/06/08 06:52:57;;;;;;;23.20;21.35;;;18.00;99.90;;;;;;4994305;28;20048;-75
2023/06/08 06:55:24;;;;;;;26.27;23.83;;;18.40;99.90;;;;;;5055095;28;20506;-73
2023/06/08 06:57:52;;;;;;;26.35;23.98;;;18.80;99.90;;;;;;5063211;27;20034;-75
2023/06/08 07:00:19;;;;;;;28.33;25.80;;;19.40;99.90;;;;;;5000803;27;20121;-74
2023/06/08 07:02:47;;;;;;;29.13;27.00;;;19.70;99.90;;;;;;4994861;27;20142;-74
2023/06/08 07:05:14;;;;;;;28.98;26.52;;;19.30;99.90;;;;;;4993644;27;20050;-75
2023/06/08 07:07:41;;;;;;;28.85;26.33;;;19.00;99.90;;;;;;5009909;27;20125;-75
2023/06/08 07:10:08;;;;;;;26.98;24.83;;;18.70;99.90;;;;;;5009848;27;20049;-74
2023/06/08 07:12:35;;;;;;;29.95;27.40;;;18.40;99.90;;;;;;4987747;27;20049;-74
2023/06/08 07:15:02;;;;;;;29.98;27.88;;;18.80;99.90;;;;;;4999357;27;20041;-73
2023/06/08 07:17:29;;;;;;;30.38;27.98;;;19.00;99.90;;;;;;4994120;27;20498;-73
2023/06/08 07:19:57;;;;;;;31.45;28.67;;;18.90;99.90;;;;;;5053481;27;20361;-72
2023/06/08 07:22:24;;;;;;;28.15;25.95;;;19.00;99.90;;;;;;5061459;27;20042;-73
2023/06/08 07:25:11;;;;;;;31.60;29.08;;;19.40;99.90;;;;;;5046681;27;20716;-74
2023/06/08 07:27:58;;;;;;;33.33;30.95;;;20.10;99.90;;;;;;5000401;27;20224;-74
2023/06/08 07:30:26;;;;;;;30.58;28.08;;;20.40;99.90;;;;;;4992681;28;20049;-73
2023/06/08 07:32:53;;;;;;;31.80;29.25;;;19.90;99.90;;;;;;5057986;27;20050;-74
2023/06/08 07:35:19;;;;;;;31.90;29.45;;;19.40;99.90;;;;;;5055779;28;20291;-74
2023/06/08 07:37:47;;;;;;;32.53;29.85;;;19.50;99.90;;;;;;4984675;28;20367;-73
2023/06/08 07:40:17;;;;;;;32.40;30.02;;;19.40;99.90;;;;;;4996875;27;20041;-74
2023/06/08 07:42:45;;;;;;;31.52;28.85;;;19.50;99.90;;;;;;4998373;28;20049;-73
2023/06/08 07:45:12;;;;;;;35.17;32.35;;;19.90;99.90;;;;;;5001145;28;20433;-71
2023/06/08 07:47:41;;;;;;;33.80;31.00;;;19.60;99.90;;;;;;5004911;28;20660;-73
2023/06/08 07:50:10;;;;;;;33.20;30.40;;;19.70;99.90;;;;;;5003029;28;20460;-73
2023/06/08 07:52:41;;;;;;;31.85;29.58;;;19.50;99.90;;;;;;5076887;27;20281;-73
2023/06/08 07:55:12;;;;;;;34.15;31.23;;;19.90;99.90;;;;;;4999613;27;22000;-73
2023/06/08 07:57:39;;;;;;;34.10;31.30;;;19.90;99.90;;;;;;5060379;28;20055;-73
2023/06/08 08:00:08;;;;;;;34.70;32.00;;;20.20;99.90;;;;;;5065419;28;20330;-72
2023/06/08 08:02:38;;;;;;;32.50;29.83;;;21.00;99.90;;;;;;4998865;28;20061;-72
2023/06/08 08:05:08;;;;;;;33.63;30.80;;;21.70;99.90;;;;;;5039795;28;20110;-74
2023/06/08 08:07:36;;;;;;;32.85;30.13;;;21.40;99.90;;;;;;4998558;28;20053;-73
2023/06/08 08:10:03;;;;;;;31.02;28.92;;;20.80;99.90;;;;;;5006920;28;20137;-73
2023/06/08 08:12:31;;;;;;;32.15;29.85;;;20.90;99.90;;;;;;4996727;28;20486;-73
2023/06/08 08:14:58;;;;;;;30.67;28.45;;;21.00;99.90;;;;;;5042118;28;20050;-73
2023/06/08 08:17:25;;;;;;;30.63;28.45;;;21.70;99.90;;;;;;4989636;28;20042;-73
2023/06/08 08:19:52;;;;;;;32.63;30.33;;;21.50;99.90;;;;;;4997401;28;20446;-72
2023/06/08 08:22:19;;;;;;;31.45;29.27;;;21.10;99.90;;;;;;5053536;28;20061;-74
2023/06/08 08:24:46;;;;;;;31.23;28.98;;;21.30;99.90;;;;;;5077264;27;20074;-74
2023/06/08 08:27:13;;;;;;;31.67;29.13;;;21.30;99.90;;;;;;4995295;27;20047;-74
2023/06/08 08:29:43;;;;;;;32.55;30.33;;;21.20;99.90;;;;;;5053529;27;20427;-72
2023/06/08 08:32:10;;;;;;;33.00;30.63;;;21.20;99.90;;;;;;4996624;27;20045;-72
2023/06/08 08:34:37;;;;;;;32.15;29.75;;;21.40;99.90;;;;;;4995741;27;20060;-73
2023/06/08 08:37:04;;;;;;;32.10;29.65;;;21.60;99.90;;;;;;5061207;27;20056;-74
2023/06/08 08:39:32;;;;;;;32.40;30.10;;;21.60;99.90;;;;;;4990086;27;20046;-75
2023/06/08 08:42:06;;;;;;;32.20;30.00;;;21.10;99.90;;;;;;5001478;27;20132;-74
2023/06/08 08:44:33;;;;;;;33.80;30.88;;;21.20;99.90;;;;;;5012276;27;20046;-72
2023/06/08 08:47:04;;;;;;;30.75;28.35;;;21.60;99.90;;;;;;5061083;28;20136;-74
2023/06/08 08:49:36;;;;;;;32.60;30.02;;;21.90;99.90;;;;;;5040692;28;20410;-75
2023/06/08 08:52:04;;;;;;;34.13;31.42;;;22.30;99.90;;;;;;5004218;27;20129;-74
2023/06/08 08:54:34;;;;;;;32.95;30.58;;;21.60;99.90;;;;;;5011462;27;20042;-75
2023/06/08 08:57:01;;;;;;;35.88;33.28;;;21.10;99.90;;;;;;5053181;27;20046;-73
2023/06/08 08:59:29;;;;;;;33.35;30.58;;;21.20;99.90;;;;;;5007711;27;20476;-73
2023/06/08 09:01:56;;;;;;;32.28;29.88;;;20.90;99.90;;;;;;5061209;27;20051;-73
2023/06/08 09:04:26;;;;;;;33.17;30.52;;;20.80;99.90;;;;;;5054059;27;20061;-72
2023/06/08 09:06:53;;;;;;;33.75;31.05;;;20.80;99.90;;;;;;4995416;27;20041;-72
2023/06/08 09:09:23;;;;;;;30.25;27.98;;;21.00;99.90;;;;;;5055432;27;20055;-73
2023/06/08 09:12:01;;;;;;;32.95;30.38;;;21.00;99.90;;;;;;5003622;27;20120;-75
2023/06/08 09:14:29;;;;;;;36.28;33.30;;;20.60;99.90;;;;;;5037259;28;20077;-75
2023/06/08 09:16:58;;;;;;;32.35;30.08;;;20.80;99.90;;;;;;5064502;27;20040;-75
2023/06/08 09:19:26;;;;;;;36.38;33.58;;;20.60;99.90;;;;;;5059096;27;20462;-76
2023/06/08 09:21:52;;;;;;;32.45;30.10;;;20.50;99.90;;;;;;4996239;28;20038;-77
2023/06/08 09:24:22;;;;;;;31.58;29.15;;;21.10;99.90;;;;;;5050902;28;20074;-74
2023/06/08 09:26:58;;;;;;;29.83;27.63;;;21.30;99.90;;;;;;4997275;27;20281;-74
2023/06/08 09:29:40;;;;;;;31.10;28.85;;;21.70;99.90;;;;;;4996660;28;20046;-76
2023/06/08 09:32:12;;;;;;;37.15;34.45;;;21.80;99.90;;;;;;5056773;27;20099;-73
2023/06/08 09:35:01;;;;;;;31.80;29.60;;;21.40;99.90;;;;;;4994572;27;20057;-76
2023/06/08 09:37:32;;;;;;;29.98;27.90;;;21.50;99.90;;;;;;4992379;27;20059;-74
2023/06/08 09:40:01;;;;;;;29.38;27.20;;;21.60;99.90;;;;;;5003985;27;20501;-75
2023/06/08 09:42:46;;;;;;;31.60;29.25;;;21.70;99.90;;;;;;4992197;28;20042;-74
2023/06/08 09:45:14;;;;;;;32.33;29.98;;;21.70;99.90;;;;;;4993407;27;20353;-75
2023/06/08 09:47:42;;;;;;;33.50;31.25;;;22.20;99.90;;;;;;4990144;27;20060;-73
2023/06/08 09:50:10;;;;;;;30.65;28.55;;;22.40;99.90;;;;;;5049665;27;20049;-77
2023/06/08 09:52:38;;;;;;;34.63;32.15;;;22.30;99.90;;;;;;4999671;27;20113;-75
2023/06/08 09:55:05;;;;;;;32.83;30.67;;;21.90;99.90;;;;;;5002363;27;20056;-76
2023/06/08 09:57:37;;;;;;;35.03;32.45;;;22.50;99.90;;;;;;4989143;27;20054;-77
2023/06/08 10:00:14;;;;;;;35.53;33.10;;;22.30;99.90;;;;;;5047122;28;20057;-76
2023/06/08 10:03:06;;;;;;;35.47;33.05;;;22.00;99.90;;;;;;5006757;27;20465;-77
2023/06/08 10:05:36;;;;;;;36.67;34.13;;;21.90;99.90;;;;;;5057053;28;20041;-76
2023/06/08 10:08:06;;;;;;;37.17;34.25;;;21.70;99.90;;;;;;4985522;28;20532;-75
2023/06/08 10:10:36;;;;;;;35.65;33.13;;;21.70;99.90;;;;;;5050949;27;20440;-76
2023/06/08 10:13:04;;;;;;;35.20;32.70;;;21.50;99.90;;;;;;5061540;27;20038;-78
2023/06/08 10:15:35;;;;;;;34.88;31.98;;;21.80;99.90;;;;;;4999676;27;20574;-75
2023/06/08 10:18:03;;;;;;;34.85;32.60;;;22.00;99.90;;;;;;5065231;27;20244;-75
2023/06/08 10:20:31;;;;;;;37.08;34.55;;;21.90;99.90;;;;;;4992078;27;20406;-73
2023/06/08 10:22:59;;;;;;;35.72;32.88;;;21.90;99.90;;;;;;4993073;27;20049;-73
2023/06/08 10:25:33;;;;;;;32.15;29.63;;;21.80;99.90;;;;;;5059308;27;20632;-74
2023/06/08 10:28:05;;;;;;;32.25;30.05;;;21.80;99.90;;;;;;5067695;27;20064;-73
2023/06/08 10:30:41;;;;;;;34.20;31.55;;;21.50;99.90;;;;;;5057844;27;20466;-75
2023/06/08 10:33:11;;;;;;;33.20;30.95;;;21.20;99.90;;;;;;4991017;27;20053;-76
2023/06/08 10:35:42;;;;;;;33.95;31.42;;;21.40;99.90;;;;;;4984922;27;20050;-76
2023/06/08 10:38:14;;;;;;;33.08;30.90;;;21.60;99.90;;;;;;5012053;27;20045;-75
2023/06/08 10:40:49;;;;;;;36.40;33.75;;;21.90;99.90;;;;;;5059074;27;20477;-73
2023/06/08 10:43:15;;;;;;;32.53;30.48;;;22.00;99.90;;;;;;4993143;27;20051;-73
2023/06/08 10:46:03;;;;;;;35.13;32.80;;;22.40;99.90;;;;;;4995305;27;20520;-75
2023/06/08 10:48:37;;;;;;;31.65;29.65;;;22.40;99.90;;;;;;4991880;28;20058;-73
2023/06/08 10:51:09;;;;;;;31.15;29.25;;;22.30;99.90;;;;;;5054768;27;20110;-76
2023/06/08 10:53:45;;;;;;;30.52;28.63;;;22.30;99.90;;;;;;4998418;27;20047;-75
2023/06/08 10:56:16;;;;;;;32.35;30.40;;;22.20;99.90;;;;;;4992538;27;20041;-75
2023/06/08 10:58:53;;;;;;;32.78;30.52;;;21.80;99.90;;;;;;4994781;27;20503;-73
2023/06/08 11:01:20;;;;;;;31.85;29.77;;;21.80;99.90;;;;;;5057450;28;20174;-72
2023/06/08 11:03:47;;;;;;;31.48;29.48;;;22.10;99.90;;;;;;4999700;27;20059;-73
2023/06/08 11:06:15;;;;;;;32.35;29.90;;;22.20;99.90;;;;;;5055203;27;20054;-75
2023/06/08 11:08:42;;;;;;;31.25;29.08;;;22.50;99.90;;;;;;4988362;27;20448;-75
2023/06/08 11:11:10;;;;;;;31.08;28.98;;;22.50;99.90;;;;;;4991302;27;20046;-73
2023/06/08 11:13:38;;;;;;;32.53;30.33;;;22.20;99.90;;;;;;5006958;27;21017;-76
2023/06/08 11:16:05;;;;;;;33.97;31.83;;;22.00;99.90;;;;;;5059505;27;20140;-73
2023/06/08 11:18:34;;;;;;;37.88;35.45;;;21.80;99.90;;;;;;5062913;27;20485;-72
2023/06/08 11:21:02;;;;;;;38.15;35.85;;;21.90;99.90;;;;;;5000064;27;20071;-73
2023/06/08 11:23:33;;;;;;;39.03;36.63;;;22.30;99.90;;;;;;5058691;27;20041;-73
2023/06/08 11:26:01;;;;;;;38.78;36.50;;;22.70;99.90;;;;;;5057542;27;20220;-74
2023/06/08 11:28:28;;;;;;;35.50;32.97;;;23.30;99.90;;;;;;4981163;27;20048;-77
2023/06/08 11:30:55;;;;;;;36.30;33.90;;;23.10;99.90;;;;;;5058840;27;20470;-75
2023/06/08 11:33:23;;;;;;;36.60;34.00;;;23.20;99.90;;;;;;5062687;27;20035;-74
2023/06/08 11:35:53;;;;;;;35.22;33.00;;;23.10;99.90;;;;;;4996423;27;20057;-75
2023/06/08 11:38:25;;;;;;;39.33;36.72;;;23.40;99.90;;;;;;5060766;28;20038;-75
2023/06/08 11:40:56;;;;;;;38.40;35.88;;;23.70;99.90;;;;;;4991163;27;20075;-74
2023/06/08 11:43:23;;;;;;;35.72;33.33;;;24.10;99.90;;;;;;4984807;28;20056;-77
2023/06/08 11:45:51;;;;;;;37.22;34.67;;;24.40;99.90;;;;;;4996405;27;20529;-77
2023/06/08 11:48:22;;;;;;;36.40;34.00;;;24.60;99.90;;;;;;5002787;28;20061;-75
2023/06/08 11:50:49;;;;;;;38.83;36.42;;;24.40;99.90;;;;;;4998323;27;20064;-76
2023/06/08 11:53:22;;;;;;;34.83;32.60;;;24.40;99.90;;;;;;4997373;28;20032;-77
2023/06/08 11:55:54;;;;;;;32.17;30.20;;;24.40;99.90;;;;;;5054277;28;20056;-76
2023/06/08 11:58:29;;;;;;;33.83;31.63;;;23.80;99.90;;;;;;5060551;28;20061;-73
2023/06/08 12:01:23;;;;;;;34.75;32.45;;;23.10;99.90;;;;;;5059661;28;20101;-75
2023/06/08 12:03:50;;;;;;;38.80;36.20;;;23.30;99.90;;;;;;4988010;27;20053;-73
2023/06/08 12:06:18;;;;;;;36.85;33.88;;;23.20;99.90;;;;;;5071260;27;20055;-74
2023/06/08 12:08:48;;;;;;;35.65;33.38;;;23.50;99.90;;;;;;5061400;27;20532;-75
2023/06/08 12:11:15;;;;;;;34.85;32.65;;;23.30;99.90;;;;;;5077164;27;20053;-76
2023/06/08 12:13:44;;;;;;;39.50;37.00;;;22.80;99.90;;;;;;4993888;27;20056;-77
2023/06/08 12:16:12;;;;;;;33.58;31.27;;;22.60;99.90;;;;;;5042541;28;20259;-77
2023/06/08 12:18:44;;;;;;;38.20;35.60;;;22.70;99.90;;;;;;4994771;27;20045;-76
2023/06/08 12:21:15;;;;;;;39.17;36.67;;;22.80;99.90;;;;;;4999299;27;20077;-76
2023/06/08 12:23:42;;;;;;;37.28;34.97;;;23.20;99.90;;;;;;5002079;28;20735;-75
2023/06/08 12:26:10;;;;;;;34.80;32.72;;;23.60;99.90;;;;;;5012369;27;20052;-74
2023/06/08 12:28:37;;;;;;;37.28;34.88;;;23.90;99.90;;;;;;4998251;27;20049;-74
2023/06/08 12:31:05;;;;;;;37.85;35.58;;;23.90;99.90;;;;;;5062726;27;20067;-75
2023/06/08 12:33:31;;;;;;;37.42;35.15;;;23.80;99.90;;;;;;5056850;28;20100;-76
2023/06/08 12:35:58;;;;;;;37.92;35.33;;;23.90;99.90;;;;;;5023213;27;20517;-76
2023/06/08 12:38:25;;;;;;;38.40;36.08;;;24.20;99.90;;;;;;4997391;27;20050;-76